Weather reports worldwide

Advertisment
Reggio Calabria, Italy (16422): temperature & dewpoint: 20.05.2019 00:00:00 - 26.05.2019 00:00:00 (CEST)Reggio Calabria, Italy (16422): wind speed: 20.05.2019 00:00:00 - 26.05.2019 00:00:00 (CEST)Reggio Calabria, Italy (16422): wind direction: 20.05.2019 00:00:00 - 26.05.2019 00:00:00 (CEST)Reggio Calabria, Italy (16422): visibility: 20.05.2019 00:00:00 - 26.05.2019 00:00:00 (CEST)
Date & Time tt [°C] td [°C] ff [km/h] ff [kn] dd vv [km]
26.05.2019 00:00:00 - - - - - -
25.05.2019 23:00:00 18,0 15,0 26 14 SW 10
25.05.2019 22:00:00 18,0 14,0 13 7 S 10
25.05.2019 21:00:00 18,0 13,0 13 7 SSW 10
25.05.2019 20:00:00 18,0 13,0 13 7 S 10
25.05.2019 19:00:00 18,0 15,0 15 8 S 10
25.05.2019 18:00:00 18,0 17,0 13 7 SW 10
25.05.2019 17:00:00 19,0 16,0 22 12 SW 10
25.05.2019 16:00:00 19,0 15,0 24 13 SSW 10
25.05.2019 15:00:00 21,0 16,0 21 11 SW 10
25.05.2019 14:00:00 19,0 16,0 9 5 SW 10
25.05.2019 13:00:00 20,0 15,0 4 2 - 10
25.05.2019 12:00:00 19,0 14,0 8 4 W 10
25.05.2019 11:00:00 20,0 13,0 2 1 - 10
25.05.2019 10:00:00 19,0 12,0 5 3 SSW 10
25.05.2019 09:00:00 19,0 9,0 5 3 SE 10
25.05.2019 08:00:00 19,0 9,0 2 1 - 10
25.05.2019 07:00:00 17,0 10,0 2 1 - 10
25.05.2019 06:00:00 13,0 7,0 4 2 NNE 10
25.05.2019 05:00:00 - - - - - -
25.05.2019 04:00:00 - - - - - -
25.05.2019 03:00:00 - - - - - -
25.05.2019 02:00:00 - - - - - -
25.05.2019 01:00:00 - - - - - -
25.05.2019 00:00:00 15,0 7,0 8 4 NE 10
24.05.2019 23:00:00 16,0 9,0 8 4 N 10
24.05.2019 22:00:00 17,0 12,0 4 2 - 10
24.05.2019 21:00:00 19,0 14,0 16 9 N 10
24.05.2019 20:00:00 20,0 12,0 16 9 N 10
24.05.2019 19:00:00 22,0 12,0 18 10 N 10
24.05.2019 18:00:00 22,0 12,0 22 12 N 10
24.05.2019 17:00:00 23,0 11,0 28 15 N 10
24.05.2019 16:00:00 24,0 12,0 28 15 N 10
24.05.2019 15:00:00 25,0 10,0 26 14 N 10
24.05.2019 14:00:00 24,0 11,0 28 15 N 10
24.05.2019 13:00:00 23,0 14,0 29 16 N 10
24.05.2019 12:00:00 22,0 13,0 29 16 NNW 10
24.05.2019 11:00:00 22,0 14,0 29 16 N 10
24.05.2019 10:00:00 21,0 14,0 24 13 N 10
24.05.2019 09:00:00 20,0 14,0 21 11 N 10
24.05.2019 08:00:00 18,0 14,0 16 9 NNE 10
24.05.2019 07:00:00 18,0 13,0 16 9 NNE 10
24.05.2019 06:00:00 17,0 13,0 16 9 NNE 10
24.05.2019 05:00:00 - - - - - -
24.05.2019 04:00:00 - - - - - -
24.05.2019 03:00:00 - - - - - -
24.05.2019 02:00:00 - - - - - -
24.05.2019 01:00:00 - - - - - -
24.05.2019 00:00:00 17,0 13,0 21 11 N 10
23.05.2019 23:00:00 17,0 15,0 18 10 N 10
23.05.2019 22:00:00 17,0 15,0 18 10 NNW 10
23.05.2019 21:00:00 18,0 15,0 21 11 N 10
23.05.2019 20:00:00 19,0 14,0 24 13 N 10
23.05.2019 19:00:00 21,0 12,0 22 12 N 10
23.05.2019 18:00:00 22,0 8,0 21 11 N 10
23.05.2019 17:00:00 23,0 8,0 24 13 N 10
23.05.2019 16:00:00 23,0 9,0 28 15 N 10
23.05.2019 15:00:00 23,0 11,0 26 14 N 10
23.05.2019 14:00:00 23,0 9,0 24 13 N 10
23.05.2019 13:00:00 22,0 11,0 22 12 N 10
23.05.2019 12:00:00 22,0 13,0 22 12 N 10
23.05.2019 11:00:00 22,0 14,0 24 13 NNW 10
23.05.2019 10:00:00 20,0 13,0 24 13 N 10
23.05.2019 09:00:00 19,0 13,0 18 10 N 10
23.05.2019 08:00:00 18,0 11,0 16 9 NNE 10
23.05.2019 07:00:00 17,0 11,0 13 7 N 10
23.05.2019 06:00:00 16,0 11,0 15 8 N 10
23.05.2019 05:00:00 - - - - - -
23.05.2019 04:00:00 - - - - - -
23.05.2019 03:00:00 - - - - - -
23.05.2019 02:00:00 - - - - - -
23.05.2019 01:00:00 - - - - - -
23.05.2019 00:00:00 16,0 5,0 9 5 NNE 10
22.05.2019 23:00:00 17,0 10,0 13 7 N 10
22.05.2019 22:00:00 18,0 11,0 16 9 N 10
22.05.2019 21:00:00 18,0 10,0 16 9 N 10
22.05.2019 20:00:00 19,0 8,0 21 11 NNW 10
22.05.2019 19:00:00 20,0 8,0 18 10 NNW 10
22.05.2019 18:00:00 21,0 4,0 18 10 NNW 10
22.05.2019 17:00:00 23,0 5,0 22 12 NNW 10
22.05.2019 16:00:00 23,0 4,0 22 12 NNW 10
22.05.2019 15:00:00 25,0 5,0 22 12 N 10
22.05.2019 14:00:00 25,0 4,0 22 12 N 10
22.05.2019 13:00:00 25,0 5,0 22 12 N 10
22.05.2019 12:00:00 23,0 5,0 21 11 N 10
22.05.2019 11:00:00 22,0 8,0 16 9 N 10
22.05.2019 10:00:00 21,0 9,0 13 7 N 10
22.05.2019 09:00:00 19,0 10,0 15 8 N 10
22.05.2019 08:00:00 18,0 7,0 15 8 NNW 10
22.05.2019 07:00:00 16,0 5,0 8 4 N 10
22.05.2019 06:00:00 15,0 4,0 9 5 NNE 10
22.05.2019 05:00:00 - - - - - -
22.05.2019 04:00:00 - - - - - -
22.05.2019 03:00:00 - - - - - -
22.05.2019 02:00:00 - - - - - -
22.05.2019 01:00:00 - - - - - -
22.05.2019 00:00:00 16,0 5,0 13 7 NE 10
21.05.2019 23:00:00 16,0 5,0 11 6 NNE 10
21.05.2019 22:00:00 17,0 8,0 11 6 NNE 10
21.05.2019 21:00:00 18,0 8,0 13 7 N 10
21.05.2019 20:00:00 19,0 10,0 18 10 N 10
21.05.2019 19:00:00 19,0 10,0 21 11 N 10
21.05.2019 18:00:00 21,0 9,0 24 13 N 10
21.05.2019 17:00:00 22,0 10,0 24 13 N 10
21.05.2019 16:00:00 22,0 10,0 24 13 N 10
21.05.2019 15:00:00 23,0 10,0 21 11 N 10
21.05.2019 14:00:00 23,0 10,0 24 13 N 10
21.05.2019 13:00:00 22,0 10,0 26 14 N 10
21.05.2019 12:00:00 22,0 10,0 21 11 N 10
21.05.2019 11:00:00 22,0 11,0 16 9 N 10
21.05.2019 10:00:00 21,0 11,0 15 8 N 10
21.05.2019 09:00:00 20,0 10,0 18 10 NNE 10
21.05.2019 08:00:00 18,0 11,0 16 9 NNE 10
21.05.2019 07:00:00 16,0 11,0 15 8 NE 10
21.05.2019 06:00:00 16,0 11,0 13 7 NNE 10
21.05.2019 05:00:00 - - - - - -
21.05.2019 04:00:00 - - - - - -
21.05.2019 03:00:00 - - - - - -
21.05.2019 02:00:00 - - - - - -
21.05.2019 01:00:00 - - - - - -
21.05.2019 00:00:00 17,0 10,0 21 11 NNE 10
20.05.2019 23:00:00 17,0 9,0 16 9 N 10
20.05.2019 22:00:00 17,0 9,0 18 10 N 10
20.05.2019 21:00:00 17,0 10,0 18 10 N 10
20.05.2019 20:00:00 18,0 10,0 22 12 N 10
20.05.2019 19:00:00 20,0 10,0 22 12 N 10
20.05.2019 18:00:00 20,0 9,0 18 10 N 10
20.05.2019 17:00:00 22,0 7,0 21 11 N 10
20.05.2019 16:00:00 22,0 9,0 21 11 N 10
20.05.2019 15:00:00 22,0 10,0 22 12 N 10
20.05.2019 14:00:00 22,0 10,0 26 14 N 10
20.05.2019 13:00:00 22,0 11,0 26 14 N 10
20.05.2019 12:00:00 22,0 11,0 24 13 N 10
20.05.2019 11:00:00 21,0 12,0 22 12 N 10
20.05.2019 10:00:00 21,0 10,0 9 5 N 10
20.05.2019 09:00:00 17,0 11,0 11 6 NNE 10
20.05.2019 08:00:00 15,0 12,0 11 6 N 10
20.05.2019 07:00:00 15,0 10,0 11 6 NE 10
20.05.2019 06:00:00 14,0 11,0 11 6 NE 10
20.05.2019 05:00:00 - - - - - -
20.05.2019 04:00:00 - - - - - -
20.05.2019 03:00:00 - - - - - -
20.05.2019 02:00:00 - - - - - -
20.05.2019 01:00:00 - - - - - -
20.05.2019 00:00:00 16,0 9,0 9 5 NE 10

tt = temperature
td = dewpoint
ff = wind speed
dd = wind direction
vv = visibility

Next stations